Time;durP1;ratioP1;P1;durP2;ratioP2;P2;SDS_P1;SDS_P2;PMS_P1;PMS_P2;Temp;Humidity;BMP_temperature;BMP_pressure;BME280_temperature;BME280_humidity;BME280_pressure;Samples;Min_cycle;Max_cycle;Signal;HPM_P1;HPM_P2
2023/06/20 03:00:14;;;;;;;;;;;18.30;99.90;;;;;;6236661;22;21333;31
2023/06/20 03:02:57;;;;;;;14.25;9.35;;;18.20;99.90;;;;;;6220306;23;19915;-75
2023/06/20 03:05:24;;;;;;;18.92;9.73;;;18.20;99.90;;;;;;6247242;23;20066;-78
2023/06/20 03:07:51;;;;;;;13.73;9.80;;;18.20;99.90;;;;;;6247345;23;20087;-77
2023/06/20 03:10:17;;;;;;;18.50;10.20;;;18.30;99.90;;;;;;6220151;23;20445;-75
2023/06/20 03:12:42;;;;;;;14.80;9.77;;;18.20;99.90;;;;;;6220126;23;20020;-76
2023/06/20 03:15:08;;;;;;;17.40;10.23;;;18.30;99.90;;;;;;6247068;23;20012;-75
2023/06/20 03:17:35;;;;;;;17.50;10.38;;;18.30;99.90;;;;;;6220115;23;20087;-78
2023/06/20 03:20:04;;;;;;;15.82;9.93;;;18.30;99.90;;;;;;6246975;23;20012;-77
2023/06/20 03:22:30;;;;;;;17.98;11.52;;;18.30;99.90;;;;;;6219894;23;20008;-75
2023/06/20 03:24:55;;;;;;;16.17;9.98;;;18.30;99.90;;;;;;6219915;23;20066;-75
2023/06/20 03:27:21;;;;;;;17.10;11.07;;;18.30;99.90;;;;;;6246865;23;20012;-76
2023/06/20 03:29:47;;;;;;;17.42;10.73;;;18.40;99.90;;;;;;6246961;23;20418;-76
2023/06/20 03:32:12;;;;;;;16.23;11.18;;;18.40;99.90;;;;;;6246845;23;20490;-76
2023/06/20 03:34:38;;;;;;;14.70;10.05;;;18.40;99.90;;;;;;6219732;23;20307;-76
2023/06/20 03:37:04;;;;;;;16.52;10.48;;;18.40;99.90;;;;;;6222329;23;20429;-74
2023/06/20 03:39:29;;;;;;;16.02;11.48;;;18.40;99.90;;;;;;6224082;23;20327;-74
2023/06/20 03:41:55;;;;;;;14.20;10.50;;;18.40;99.90;;;;;;6222426;23;20334;-77
2023/06/20 03:44:20;;;;;;;19.30;11.40;;;18.50;99.90;;;;;;6220304;23;20012;-76
2023/06/20 03:46:46;;;;;;;17.33;11.82;;;18.50;99.90;;;;;;6220675;23;20012;-76
2023/06/20 03:49:12;;;;;;;16.13;10.98;;;18.50;99.90;;;;;;6220033;23;20028;-75
2023/06/20 03:51:39;;;;;;;17.20;10.27;;;18.50;99.90;;;;;;6245195;23;20035;-75
2023/06/20 03:54:05;;;;;;;15.98;11.32;;;18.50;99.90;;;;;;6219822;23;20016;-73
2023/06/20 03:56:30;;;;;;;13.68;10.32;;;18.50;99.90;;;;;;6219865;23;20093;-77
2023/06/20 03:58:56;;;;;;;16.27;10.57;;;18.50;99.90;;;;;;6246888;23;20044;-75
2023/06/20 04:01:24;;;;;;;16.42;10.55;;;18.50;99.90;;;;;;6219490;23;20091;-74
2023/06/20 04:03:52;;;;;;;14.77;10.48;;;18.50;99.90;;;;;;6219663;23;20016;-76
2023/06/20 04:06:18;;;;;;;15.35;10.20;;;18.50;99.90;;;;;;6219652;23;20090;-76
2023/06/20 04:08:45;;;;;;;14.00;9.52;;;18.50;99.90;;;;;;6246680;23;20093;-75
2023/06/20 04:11:11;;;;;;;16.77;10.52;;;18.50;99.90;;;;;;6219535;23;20020;-77
2023/06/20 04:13:36;;;;;;;14.10;9.93;;;18.60;99.90;;;;;;6247065;23;20032;-76
2023/06/20 04:16:02;;;;;;;15.05;10.30;;;18.60;99.90;;;;;;6219553;23;20043;-74
2023/06/20 04:18:28;;;;;;;13.48;9.75;;;18.60;99.90;;;;;;6219500;23;20337;-75
2023/06/20 04:20:53;;;;;;;16.58;10.70;;;18.60;99.90;;;;;;6194445;23;20019;-76
2023/06/20 04:23:19;;;;;;;15.65;10.10;;;18.60;99.90;;;;;;6246553;23;20059;-74
2023/06/20 04:25:44;;;;;;;18.40;9.90;;;18.60;99.90;;;;;;6219522;23;20413;-77
2023/06/20 04:28:10;;;;;;;15.45;10.32;;;18.60;99.90;;;;;;6246569;23;20430;-77
2023/06/20 04:30:36;;;;;;;14.68;10.05;;;18.60;99.90;;;;;;6246130;23;20019;-78
2023/06/20 04:33:01;;;;;;;16.73;10.32;;;18.60;99.90;;;;;;6246161;23;20438;-74
2023/06/20 04:35:27;;;;;;;14.60;10.52;;;18.70;99.90;;;;;;6246860;23;20050;-76
2023/06/20 04:37:53;;;;;;;20.67;10.45;;;18.60;99.90;;;;;;6219762;23;20426;-74
2023/06/20 04:40:19;;;;;;;15.25;10.27;;;18.70;99.90;;;;;;6219247;23;20054;-76
2023/06/20 04:42:47;;;;;;;13.48;9.75;;;18.70;99.90;;;;;;6219191;23;20338;-77
2023/06/20 04:45:14;;;;;;;18.00;10.55;;;18.70;99.90;;;;;;6219318;23;20020;-75
2023/06/20 04:47:41;;;;;;;14.50;10.38;;;18.70;99.90;;;;;;6219223;23;20012;-75
2023/06/20 04:50:09;;;;;;;17.90;10.15;;;18.70;99.90;;;;;;6218854;23;20016;-76
2023/06/20 04:52:35;;;;;;;15.90;10.95;;;18.70;99.90;;;;;;6246056;23;20012;-78
2023/06/20 04:55:03;;;;;;;13.55;9.73;;;18.60;99.90;;;;;;6246641;23;20004;-75
2023/06/20 04:57:30;;;;;;;16.63;10.05;;;18.70;99.90;;;;;;6219128;23;20008;-76
2023/06/20 04:59:55;;;;;;;15.43;10.20;;;18.60;99.90;;;;;;6219294;23;20027;-77
2023/06/20 05:02:21;;;;;;;19.38;10.55;;;18.70;99.90;;;;;;6219034;23;20016;-76
2023/06/20 05:04:47;;;;;;;14.40;9.90;;;18.70;99.90;;;;;;6219052;23;20012;-77
2023/06/20 05:07:13;;;;;;;14.57;10.80;;;18.70;99.90;;;;;;6219219;23;20051;-78
2023/06/20 05:09:38;;;;;;;16.63;10.75;;;18.70;99.90;;;;;;6219112;23;20020;-74
2023/06/20 05:12:05;;;;;;;16.35;10.55;;;18.70;99.90;;;;;;6245899;23;20012;-76
2023/06/20 05:14:31;;;;;;;19.52;10.85;;;18.70;99.90;;;;;;6219075;23;20004;-75
2023/06/20 05:16:56;;;;;;;16.50;10.90;;;18.70;99.90;;;;;;6246052;23;20061;-76
2023/06/20 05:19:22;;;;;;;15.20;11.38;;;18.70;99.90;;;;;;6218995;23;20063;-74
2023/06/20 05:21:48;;;;;;;18.23;10.45;;;18.70;99.90;;;;;;6246145;23;20378;-74
2023/06/20 05:24:14;;;;;;;15.07;10.75;;;18.70;99.90;;;;;;6219036;23;20047;-75
2023/06/20 05:26:40;;;;;;;15.60;10.82;;;18.70;99.90;;;;;;6219383;23;20087;-76
2023/06/20 05:29:06;;;;;;;14.30;10.13;;;18.70;99.90;;;;;;6218928;23;20448;-76
2023/06/20 05:31:31;;;;;;;18.40;11.32;;;18.80;99.90;;;;;;6244043;23;20009;-76
2023/06/20 05:33:57;;;;;;;15.90;10.60;;;18.70;99.90;;;;;;6218911;23;20091;-76
2023/06/20 05:36:23;;;;;;;13.73;10.13;;;18.80;99.90;;;;;;6218865;23;20027;-74
2023/06/20 05:38:51;;;;;;;17.02;10.85;;;18.80;99.90;;;;;;6245635;23;20012;-75
2023/06/20 05:41:27;;;;;;;18.60;11.57;;;18.80;99.90;;;;;;6245723;23;20008;-77
2023/06/20 05:43:52;;;;;;;14.48;10.23;;;18.90;99.90;;;;;;6218357;23;20015;-74
2023/06/20 05:46:18;;;;;;;16.27;10.18;;;18.90;99.90;;;;;;6218853;23;20019;-76
2023/06/20 05:48:44;;;;;;;14.15;10.25;;;19.00;99.90;;;;;;6245830;23;20062;-76
2023/06/20 05:51:13;;;;;;;15.57;11.18;;;18.90;99.90;;;;;;6218811;23;20449;-77
2023/06/20 05:53:41;;;;;;;16.58;10.75;;;19.00;99.90;;;;;;6219632;23;20044;-75
2023/06/20 05:56:10;;;;;;;20.25;10.82;;;19.00;99.90;;;;;;6218887;23;20525;-76
2023/06/20 05:58:36;;;;;;;20.95;10.55;;;19.00;99.90;;;;;;6245918;23;20023;-76
2023/06/20 06:01:05;;;;;;;19.02;10.88;;;19.00;99.90;;;;;;6219840;23;20012;-76
2023/06/20 06:03:34;;;;;;;20.02;11.05;;;19.10;99.90;;;;;;6220875;23;20055;-77
2023/06/20 06:06:00;;;;;;;20.38;11.88;;;19.10;99.90;;;;;;6247907;23;20016;-76
2023/06/20 06:08:26;;;;;;;18.20;11.32;;;19.20;99.90;;;;;;6220720;23;20012;-75
2023/06/20 06:10:52;;;;;;;12.52;10.25;;;19.20;99.90;;;;;;6247475;23;20073;-75
2023/06/20 06:13:18;;;;;;;14.57;10.25;;;19.30;99.90;;;;;;6220889;23;20138;-77
2023/06/20 06:15:43;;;;;;;17.52;10.80;;;19.30;99.90;;;;;;6247618;23;20071;-76
2023/06/20 06:18:09;;;;;;;16.30;10.68;;;19.40;99.90;;;;;;6248220;23;20095;-76
2023/06/20 06:20:35;;;;;;;17.90;12.02;;;19.40;99.90;;;;;;6247984;23;20008;-77
2023/06/20 06:23:01;;;;;;;20.35;10.52;;;19.50;99.90;;;;;;6220673;23;20062;-76
2023/06/20 06:25:27;;;;;;;16.15;10.80;;;19.70;99.90;;;;;;6247769;23;20087;-75
2023/06/20 06:27:52;;;;;;;15.88;10.70;;;19.70;99.90;;;;;;6220372;23;20036;-76
2023/06/20 06:30:18;;;;;;;14.43;10.43;;;19.90;99.90;;;;;;6220247;23;20107;-76
2023/06/20 06:32:47;;;;;;;16.17;11.52;;;19.90;99.90;;;;;;6220693;23;20020;-76
2023/06/20 06:35:14;;;;;;;17.67;10.93;;;20.10;99.90;;;;;;6246262;23;20004;-76
2023/06/20 06:37:40;;;;;;;14.93;10.48;;;20.20;99.90;;;;;;6220486;23;20345;-74
2023/06/20 06:40:09;;;;;;;13.98;10.70;;;20.20;99.90;;;;;;6220547;23;20091;-78
2023/06/20 06:42:35;;;;;;;17.02;11.82;;;20.30;99.90;;;;;;6220408;23;20027;-76
2023/06/20 06:45:01;;;;;;;16.40;11.63;;;20.30;99.90;;;;;;6247308;23;20012;-76
2023/06/20 06:47:26;;;;;;;16.27;11.68;;;20.40;99.90;;;;;;6247574;23;20012;-75
2023/06/20 06:49:52;;;;;;;15.98;11.25;;;20.40;99.90;;;;;;6220534;23;20016;-76
2023/06/20 06:52:18;;;;;;;15.88;11.60;;;20.40;99.90;;;;;;6247051;23;20009;-76
2023/06/20 06:54:43;;;;;;;15.82;12.15;;;20.40;99.90;;;;;;6220367;23;20016;-75
2023/06/20 06:57:09;;;;;;;17.65;10.98;;;20.40;99.90;;;;;;6247601;23;20012;-77
2023/06/20 06:59:35;;;;;;;15.85;11.65;;;20.40;99.90;;;;;;6247496;23;20050;-76
2023/06/20 07:02:00;;;;;;;16.38;11.65;;;20.50;99.90;;;;;;6220039;23;20065;-76
2023/06/20 07:04:26;;;;;;;18.02;10.55;;;20.60;99.90;;;;;;6247138;23;20338;-76
2023/06/20 07:06:52;;;;;;;15.02;10.88;;;20.60;99.90;;;;;;6245529;23;20004;-76
2023/06/20 07:09:17;;;;;;;15.00;10.98;;;20.70;99.90;;;;;;6246952;23;20016;-76
2023/06/20 07:11:43;;;;;;;14.70;10.48;;;20.80;99.90;;;;;;6246796;23;20016;-77
2023/06/20 07:14:08;;;;;;;14.82;10.18;;;20.80;99.90;;;;;;6220263;23;20016;-77
2023/06/20 07:16:34;;;;;;;14.57;11.10;;;20.90;99.90;;;;;;6247307;23;20079;-77
2023/06/20 07:19:00;;;;;;;13.50;10.35;;;21.00;99.90;;;;;;6247393;23;20016;-77
2023/06/20 07:21:27;;;;;;;13.20;10.35;;;21.00;99.90;;;;;;6247326;23;20004;-76
2023/06/20 07:23:53;;;;;;;15.48;11.70;;;21.00;99.90;;;;;;6247473;23;20333;-76
2023/06/20 07:26:18;;;;;;;18.77;10.52;;;21.00;99.90;;;;;;6247298;23;20035;-75
2023/06/20 07:28:44;;;;;;;16.95;11.02;;;21.10;99.90;;;;;;6220058;23;20353;-77
2023/06/20 07:31:20;;;;;;;14.32;10.75;;;21.10;99.90;;;;;;6220052;23;20342;-75
2023/06/20 07:33:46;;;;;;;13.07;10.68;;;21.20;99.90;;;;;;6220025;23;20434;-76
2023/06/20 07:36:12;;;;;;;16.02;10.85;;;21.20;99.90;;;;;;6246913;23;20449;-77
2023/06/20 07:38:39;;;;;;;14.77;10.50;;;21.20;99.90;;;;;;6220307;23;20069;-77
2023/06/20 07:41:04;;;;;;;16.70;11.73;;;21.30;99.90;;;;;;6219846;23;20024;-77
2023/06/20 07:43:30;;;;;;;17.42;11.73;;;21.30;99.90;;;;;;6220077;23;20568;-77
2023/06/20 07:45:56;;;;;;;16.77;11.57;;;21.30;99.90;;;;;;6247031;23;20047;-76
2023/06/20 07:48:27;;;;;;;16.02;11.07;;;21.30;99.90;;;;;;6246647;23;20164;-75
2023/06/20 07:50:53;;;;;;;17.90;11.18;;;21.30;99.90;;;;;;6219886;23;20434;-76
2023/06/20 07:53:18;;;;;;;15.35;11.93;;;21.40;99.90;;;;;;6247286;23;20465;-75
2023/06/20 07:55:44;;;;;;;14.57;11.40;;;21.40;99.90;;;;;;6219659;23;20033;-74
2023/06/20 07:58:10;;;;;;;14.38;11.30;;;21.50;99.90;;;;;;6246662;23;20461;-74
2023/06/20 08:00:35;;;;;;;13.57;11.65;;;21.50;99.90;;;;;;6217756;23;20350;-77
2023/06/20 08:03:01;;;;;;;16.38;11.60;;;21.60;99.90;;;;;;6219744;23;20386;-75
2023/06/20 08:05:27;;;;;;;16.45;11.52;;;21.70;99.90;;;;;;6219475;23;20022;-77
2023/06/20 08:07:52;;;;;;;16.20;11.52;;;21.80;99.90;;;;;;6246625;23;20087;-75
2023/06/20 08:10:18;;;;;;;13.88;11.70;;;21.80;99.90;;;;;;6219562;23;20115;-77
2023/06/20 08:12:44;;;;;;;15.57;11.45;;;22.00;99.90;;;;;;6219948;23;20019;-75
2023/06/20 08:15:10;;;;;;;15.35;11.20;;;22.00;99.90;;;;;;6246869;23;20070;-74
2023/06/20 08:17:36;;;;;;;14.38;10.90;;;22.10;99.90;;;;;;6246435;23;20083;-75
2023/06/20 08:20:06;;;;;;;19.17;12.68;;;22.20;99.90;;;;;;6246448;23;20059;-74
2023/06/20 08:22:32;;;;;;;14.55;11.00;;;22.30;99.90;;;;;;6219545;23;20410;-77
2023/06/20 08:24:58;;;;;;;17.83;10.95;;;22.40;99.90;;;;;;6246526;23;20008;-77
2023/06/20 08:27:24;;;;;;;14.25;11.35;;;22.40;99.90;;;;;;6246349;23;20115;-75
2023/06/20 08:29:49;;;;;;;16.95;11.57;;;22.40;99.90;;;;;;6244897;23;20462;-77
2023/06/20 08:32:15;;;;;;;13.98;11.07;;;22.40;99.90;;;;;;6219429;23;20043;-76
2023/06/20 08:34:41;;;;;;;17.35;11.60;;;22.40;99.90;;;;;;6219461;23;20020;-76
2023/06/20 08:37:08;;;;;;;15.10;11.05;;;22.40;99.90;;;;;;6219491;23;20013;-78
2023/06/20 08:39:35;;;;;;;17.27;11.05;;;22.40;99.90;;;;;;6219431;23;20051;-77
2023/06/20 08:42:01;;;;;;;13.63;10.70;;;22.40;99.90;;;;;;6219352;23;20012;-75
2023/06/20 08:44:27;;;;;;;15.02;11.73;;;22.40;99.90;;;;;;6246210;23;20083;-76
2023/06/20 08:46:57;;;;;;;15.55;11.57;;;22.50;99.90;;;;;;6219175;23;20040;-76
2023/06/20 08:49:26;;;;;;;15.30;12.05;;;22.50;99.90;;;;;;6219460;23;20054;-75
2023/06/20 08:51:57;;;;;;;15.25;11.60;;;22.50;99.90;;;;;;6246709;23;20008;-77
2023/06/20 08:54:25;;;;;;;18.05;10.82;;;22.50;99.90;;;;;;6219486;23;20012;-76
2023/06/20 08:56:50;;;;;;;17.42;11.63;;;22.60;99.90;;;;;;6245995;23;20438;-76
2023/06/20 08:59:21;;;;;;;14.48;11.07;;;22.80;99.90;;;;;;6246099;23;20016;-76
2023/06/20 09:01:47;;;;;;;13.63;10.90;;;22.90;99.90;;;;;;6245943;23;20008;-73
2023/06/20 09:04:13;;;;;;;16.38;11.15;;;23.10;99.90;;;;;;6246134;23;20014;-77
2023/06/20 09:06:39;;;;;;;12.35;10.60;;;23.30;99.90;;;;;;6219153;23;20410;-76
2023/06/20 09:09:17;;;;;;;20.23;10.73;;;23.40;99.90;;;;;;6218947;23;20016;-76
2023/06/20 09:11:52;;;;;;;16.17;10.80;;;23.60;99.90;;;;;;6246224;23;20012;-75
2023/06/20 09:14:18;;;;;;;14.80;10.07;;;23.70;99.90;;;;;;6218988;23;20039;-74
2023/06/20 09:16:47;;;;;;;13.27;10.60;;;23.80;99.90;;;;;;6218898;23;20016;-74
2023/06/20 09:19:13;;;;;;;15.38;10.57;;;23.90;99.90;;;;;;6218964;23;20043;-76
2023/06/20 09:21:39;;;;;;;13.50;10.15;;;24.20;99.90;;;;;;6218971;23;20442;-74
2023/06/20 09:24:06;;;;;;;15.02;10.57;;;24.40;99.90;;;;;;6218857;23;20020;-76
2023/06/20 09:26:32;;;;;;;13.20;10.05;;;24.60;99.90;;;;;;6246504;23;20031;-77
2023/06/20 09:29:14;;;;;;;14.38;10.38;;;24.70;99.90;;;;;;6245771;23;20311;-76
2023/06/20 09:31:49;;;;;;;11.07;9.77;;;24.80;99.90;;;;;;6244428;23;20012;-75
2023/06/20 09:34:18;;;;;;;11.60;10.35;;;24.90;99.90;;;;;;6246140;23;20016;-75
2023/06/20 09:36:47;;;;;;;12.27;9.95;;;24.90;99.90;;;;;;6245567;23;20088;-75
2023/06/20 09:39:20;;;;;;;13.25;9.55;;;25.10;99.90;;;;;;6219881;23;20322;-76
2023/06/20 09:41:47;;;;;;;15.13;11.25;;;25.20;99.90;;;;;;6246350;23;20102;-75
2023/06/20 09:44:14;;;;;;;14.50;10.00;;;25.40;99.90;;;;;;6246152;23;20004;-76
2023/06/20 09:46:40;;;;;;;14.23;9.88;;;25.50;99.90;;;;;;6245810;23;20008;-76
2023/06/20 09:49:06;;;;;;;13.98;10.18;;;25.50;99.90;;;;;;6244181;23;20016;-77
2023/06/20 09:51:34;;;;;;;13.00;10.57;;;25.50;99.90;;;;;;6194076;23;20016;-76
2023/06/20 09:54:11;;;;;;;15.63;9.93;;;25.60;99.90;;;;;;6245690;23;20012;-77
2023/06/20 09:56:49;;;;;;;14.65;10.45;;;25.70;99.90;;;;;;6219133;23;20008;-74
2023/06/20 09:59:16;;;;;;;13.82;10.77;;;25.80;99.90;;;;;;6218813;23;20023;-77
2023/06/20 10:01:43;;;;;;;17.15;10.65;;;25.90;99.90;;;;;;6245562;23;20011;-76
2023/06/20 10:04:10;;;;;;;20.30;11.48;;;26.10;99.90;;;;;;6218866;23;20019;-76
2023/06/20 10:06:37;;;;;;;12.65;10.80;;;26.20;99.90;;;;;;6245632;23;20008;-75
2023/06/20 10:09:07;;;;;;;15.88;11.10;;;26.30;99.90;;;;;;6194437;23;20015;-77
2023/06/20 10:11:37;;;;;;;11.63;9.98;;;26.30;99.90;;;;;;6218873;23;20085;-77
2023/06/20 10:14:04;;;;;;;13.40;9.70;;;26.50;99.90;;;;;;6218603;23;20012;-77
2023/06/20 10:16:30;;;;;;;14.32;10.77;;;26.60;99.90;;;;;;6245540;23;20075;-76
2023/06/20 10:18:56;;;;;;;12.40;10.27;;;26.80;99.90;;;;;;6245504;23;20090;-75
2023/06/20 10:21:57;;;;;;;13.80;10.55;;;26.80;99.90;;;;;;6218582;23;20083;-76
2023/06/20 10:24:30;;;;;;;12.57;9.70;;;27.00;99.90;;;;;;6193641;23;20422;-75
2023/06/20 10:27:00;;;;;;;14.02;9.55;;;27.00;99.90;;;;;;6193489;23;20027;-74
2023/06/20 10:29:26;;;;;;;15.00;9.82;;;27.10;99.90;;;;;;6218384;23;20457;-76
2023/06/20 10:31:57;;;;;;;10.20;9.00;;;27.20;99.90;;;;;;6218533;23;20472;-76
2023/06/20 10:34:37;;;;;;;12.63;9.88;;;27.30;99.90;;;;;;6245961;23;20063;-76
2023/06/20 10:37:33;;;;;;;10.35;9.13;;;27.30;99.90;;;;;;6218639;23;20015;-76
2023/06/20 10:39:59;;;;;;;;;;;27.40;99.90;;;;;;6246489;23;20088;-77
2023/06/20 10:42:37;;;;;;;10.40;7.68;;;27.50;99.90;;;;;;6245814;23;20333;-77
2023/06/20 10:45:16;;;;;;;9.63;7.50;;;27.50;99.90;;;;;;6217388;23;20008;-76
2023/06/20 10:47:42;;;;;;;11.30;7.70;;;27.70;99.90;;;;;;6246199;23;20019;-76
2023/06/20 10:50:08;;;;;;;8.73;7.03;;;27.70;99.90;;;;;;6247019;23;20091;-76
2023/06/20 10:52:35;;;;;;;9.88;8.13;;;27.80;99.90;;;;;;6220405;23;20020;-77
2023/06/20 10:55:02;;;;;;;8.55;7.43;;;27.90;99.90;;;;;;6220464;23;20021;-76
2023/06/20 10:57:30;;;;;;;10.93;7.78;;;28.00;99.90;;;;;;6247334;23;20008;-75
2023/06/20 10:59:55;;;;;;;10.43;8.57;;;28.00;99.90;;;;;;6220500;23;20358;-76
2023/06/20 11:02:21;;;;;;;13.05;8.68;;;28.10;99.90;;;;;;6220269;23;20013;-76
2023/06/20 11:04:48;;;;;;;11.48;9.23;;;28.20;99.90;;;;;;6221292;23;20008;-76
2023/06/20 11:07:14;;;;;;;8.30;6.93;;;28.30;99.90;;;;;;6220308;23;20015;-77
2023/06/20 11:09:40;;;;;;;9.15;6.68;;;28.20;99.90;;;;;;6247400;23;20012;-75
2023/06/20 11:12:07;;;;;;;8.02;6.80;;;28.30;99.90;;;;;;6220163;23;20091;-76
2023/06/20 11:14:33;;;;;;;8.52;6.60;;;28.40;99.90;;;;;;6247213;23;20019;-76
2023/06/20 11:17:00;;;;;;;7.65;6.82;;;28.50;99.90;;;;;;6220185;23;20009;-77
2023/06/20 11:19:28;;;;;;;10.50;7.05;;;28.70;99.90;;;;;;6220309;23;20066;-76
2023/06/20 11:21:55;;;;;;;12.85;6.75;;;28.70;99.90;;;;;;6247133;23;20016;-75
2023/06/20 11:24:21;;;;;;;9.82;7.45;;;28.80;99.90;;;;;;6220236;23;20016;-76
2023/06/20 11:26:46;;;;;;;10.25;6.90;;;29.00;99.90;;;;;;6247427;23;20011;-74
2023/06/20 11:29:12;;;;;;;7.25;6.13;;;29.00;99.90;;;;;;6247367;23;20087;-77
2023/06/20 11:31:38;;;;;;;7.55;6.30;;;29.00;99.90;;;;;;6220168;23;20039;-76
2023/06/20 11:34:08;;;;;;;11.05;6.10;;;29.00;99.90;;;;;;6220118;23;20319;-76
2023/06/20 11:36:36;;;;;;;10.23;6.22;;;29.00;99.90;;;;;;6220090;23;20130;-75
2023/06/20 11:39:09;;;;;;;8.90;5.65;;;29.10;99.90;;;;;;6219995;23;20051;-77
2023/06/20 11:41:35;;;;;;;8.63;5.80;;;29.10;99.90;;;;;;6246848;23;20020;-76
2023/06/20 11:44:03;;;;;;;7.63;5.38;;;29.20;99.90;;;;;;6195005;23;20406;-75
2023/06/20 11:46:29;;;;;;;6.88;5.30;;;29.20;99.90;;;;;;6247358;23;20012;-75
2023/06/20 11:48:58;;;;;;;7.35;5.03;;;29.10;99.90;;;;;;6219764;23;20070;-76
2023/06/20 11:51:25;;;;;;;9.30;5.75;;;29.20;99.90;;;;;;6219891;23;20020;-75
2023/06/20 11:54:12;;;;;;;6.50;5.68;;;29.30;99.90;;;;;;6247240;23;20138;-76
2023/06/20 11:56:38;;;;;;;8.07;5.20;;;29.30;99.90;;;;;;6195146;23;20012;-75
2023/06/20 11:59:04;;;;;;;9.00;5.05;;;29.30;99.90;;;;;;6223822;23;20015;-73
2023/06/20 12:01:32;;;;;;;5.93;5.32;;;29.10;99.90;;;;;;6250843;23;20015;-75
2023/06/20 12:04:10;;;;;;;8.55;5.78;;;29.20;99.90;;;;;;6223531;23;20012;-75
2023/06/20 12:06:38;;;;;;;16.10;5.72;;;29.30;99.90;;;;;;6223988;23;20019;-75
2023/06/20 12:09:09;;;;;;;12.32;5.10;;;29.40;99.90;;;;;;6247189;23;20012;-75
2023/06/20 12:11:44;;;;;;;5.88;5.15;;;29.40;99.90;;;;;;6246816;23;20020;-75
2023/06/20 12:14:10;;;;;;;6.60;5.03;;;29.40;99.90;;;;;;6246901;23;20008;-76
2023/06/20 12:16:36;;;;;;;9.35;5.57;;;29.20;99.90;;;;;;6247279;23;20015;-76
2023/06/20 12:19:02;;;;;;;8.15;6.22;;;29.00;99.90;;;;;;6219924;23;20511;-76
2023/06/20 12:21:28;;;;;;;9.40;5.50;;;29.10;99.90;;;;;;6246889;23;20040;-76
2023/06/20 12:23:53;;;;;;;9.15;6.13;;;29.10;99.90;;;;;;6247122;23;20428;-74
2023/06/20 12:26:19;;;;;;;8.30;6.07;;;29.00;99.90;;;;;;6220169;23;20066;-75
2023/06/20 12:28:45;;;;;;;7.43;5.97;;;28.80;99.90;;;;;;6220461;23;20012;-75
2023/06/20 12:31:12;;;;;;;7.75;6.38;;;28.60;99.90;;;;;;6246635;23;20392;-75
2023/06/20 12:33:38;;;;;;;8.57;6.13;;;28.50;99.90;;;;;;6247645;23;20008;-76
2023/06/20 12:36:05;;;;;;;8.60;6.70;;;28.50;99.90;;;;;;6219784;23;20012;-76
2023/06/20 12:38:31;;;;;;;7.88;6.72;;;28.40;99.90;;;;;;6195100;23;20117;-76
2023/06/20 12:40:59;;;;;;;10.48;6.32;;;28.40;99.90;;;;;;6246865;23;20051;-76
2023/06/20 12:43:25;;;;;;;10.15;6.07;;;28.30;99.90;;;;;;6219862;23;20023;-75
2023/06/20 12:45:52;;;;;;;7.45;6.13;;;28.20;99.90;;;;;;6246841;23;20012;-74
2023/06/20 12:48:18;;;;;;;7.15;5.30;;;28.30;99.90;;;;;;6246653;23;20008;-76
2023/06/20 12:50:44;;;;;;;7.18;5.80;;;28.50;99.90;;;;;;6247048;23;20154;-74
2023/06/20 12:53:10;;;;;;;8.80;5.43;;;28.70;99.90;;;;;;6220097;23;20067;-76
2023/06/20 12:55:35;;;;;;;7.50;5.65;;;28.80;99.90;;;;;;6219987;23;20062;-75
2023/06/20 12:58:01;;;;;;;8.50;6.60;;;28.70;99.90;;;;;;6219812;23;20026;-76
2023/06/20 13:00:30;;;;;;;9.35;6.45;;;28.70;99.90;;;;;;6247528;23;20015;-76
2023/06/20 13:02:56;;;;;;;9.52;5.95;;;28.60;99.90;;;;;;6247431;23;20019;-75
2023/06/20 13:05:22;;;;;;;7.43;5.65;;;28.50;99.90;;;;;;6246886;23;20016;-75
2023/06/20 13:07:48;;;;;;;8.52;5.38;;;28.30;99.90;;;;;;6194332;23;20012;-75
2023/06/20 13:10:16;;;;;;;5.90;5.00;;;28.20;99.90;;;;;;6245762;23;20020;-76
2023/06/20 13:12:42;;;;;;;6.85;5.47;;;28.10;99.90;;;;;;6219497;23;20461;-75
2023/06/20 13:15:08;;;;;;;8.05;5.55;;;28.10;99.90;;;;;;6219403;23;20012;-76
2023/06/20 13:17:36;;;;;;;6.50;5.35;;;28.10;99.90;;;;;;6246461;23;20358;-76
2023/06/20 13:20:05;;;;;;;7.30;5.45;;;28.20;99.90;;;;;;6194220;23;20019;-74
2023/06/20 13:22:32;;;;;;;5.85;5.13;;;28.10;99.90;;;;;;6246226;23;20011;-75
2023/06/20 13:24:57;;;;;;;9.85;5.93;;;28.10;99.90;;;;;;6245977;23;20083;-75
2023/06/20 13:27:25;;;;;;;6.00;5.07;;;28.10;99.90;;;;;;6246221;23;20442;-75
2023/06/20 13:29:51;;;;;;;7.53;5.78;;;28.00;99.90;;;;;;6193854;23;20016;-75
2023/06/20 13:32:17;;;;;;;6.80;5.65;;;27.90;99.90;;;;;;6218889;23;20461;-75
2023/06/20 13:34:43;;;;;;;7.43;5.15;;;27.90;99.90;;;;;;6218827;23;20012;-75
2023/06/20 13:37:09;;;;;;;5.82;5.13;;;27.90;99.90;;;;;;6246313;23;20012;-75
2023/06/20 13:39:34;;;;;;;10.77;5.70;;;28.20;99.90;;;;;;6219326;23;20055;-75
2023/06/20 13:42:00;;;;;;;6.22;4.90;;;28.50;99.90;;;;;;6219304;23;20019;-75
2023/06/20 13:44:27;;;;;;;6.35;4.45;;;28.70;99.90;;;;;;6219553;23;20410;-76
2023/06/20 13:46:53;;;;;;;6.18;4.85;;;28.70;99.90;;;;;;6218845;23;20016;-75
2023/06/20 13:49:18;;;;;;;6.43;4.72;;;28.70;99.90;;;;;;6218784;23;20410;-76
2023/06/20 13:51:44;;;;;;;6.68;5.30;;;28.70;99.90;;;;;;6219830;23;20016;-76
2023/06/20 13:54:11;;;;;;;5.50;4.70;;;28.90;99.90;;;;;;6219007;23;20012;-75
2023/06/20 13:56:38;;;;;;;6.70;4.70;;;29.00;99.90;;;;;;6218891;23;20536;-76
2023/06/20 13:59:03;;;;;;;5.30;4.75;;;29.20;99.90;;;;;;6218819;23;20446;-75
2023/06/20 14:01:30;;;;;;;7.35;4.53;;;29.30;99.90;;;;;;6245764;23;20008;-76
2023/06/20 14:03:56;;;;;;;8.50;4.80;;;29.30;99.90;;;;;;6218688;23;20381;-75
2023/06/20 14:06:21;;;;;;;6.57;4.78;;;29.30;99.90;;;;;;6246098;23;20062;-75
2023/06/20 14:08:48;;;;;;;7.85;5.32;;;29.30;99.90;;;;;;6246228;23;20063;-75
2023/06/20 14:11:13;;;;;;;6.25;4.72;;;29.40;99.90;;;;;;6218808;23;20012;-76
2023/06/20 14:13:39;;;;;;;5.45;4.75;;;29.40;99.90;;;;;;6244114;23;20040;-74
2023/06/20 14:16:06;;;;;;;6.63;4.70;;;29.30;99.90;;;;;;6218897;23;20077;-76
2023/06/20 14:18:32;;;;;;;5.68;4.65;;;29.20;99.90;;;;;;6218754;23;20468;-75
2023/06/20 14:21:00;;;;;;;6.28;5.00;;;29.20;99.90;;;;;;6219053;23;20016;-74
2023/06/20 14:23:26;;;;;;;5.65;4.80;;;29.20;99.90;;;;;;6248263;23;20008;-73
2023/06/20 14:25:52;;;;;;;5.93;4.65;;;29.30;99.90;;;;;;6248341;23;20031;-75
2023/06/20 14:28:19;;;;;;;6.13;4.90;;;29.40;99.90;;;;;;6220274;23;20016;-75
2023/06/20 14:30:46;;;;;;;7.43;4.60;;;29.40;99.90;;;;;;6220498;23;20016;-75
2023/06/20 14:33:13;;;;;;;7.65;4.95;;;29.50;99.90;;;;;;6220578;23;20349;-75
2023/06/20 14:35:38;;;;;;;6.60;4.50;;;29.50;99.90;;;;;;6247397;23;20048;-76
2023/06/20 14:38:04;;;;;;;5.43;4.70;;;29.50;99.90;;;;;;6247815;23;20016;-75
2023/06/20 14:40:30;;;;;;;5.20;4.70;;;29.60;99.90;;;;;;6221385;23;20026;-75
2023/06/20 14:42:55;;;;;;;6.65;4.90;;;29.70;99.90;;;;;;6247353;23;20111;-75
2023/06/20 14:45:21;;;;;;;7.20;4.60;;;29.80;99.90;;;;;;6247155;23;20034;-75
2023/06/20 14:47:47;;;;;;;5.85;4.75;;;29.90;99.90;;;;;;6220686;23;20020;-75
2023/06/20 14:50:12;;;;;;;5.95;4.88;;;29.90;99.90;;;;;;6247316;23;20011;-74
2023/06/20 14:52:38;;;;;;;5.75;4.78;;;29.70;99.90;;;;;;6247511;23;20039;-74
2023/06/20 14:55:05;;;;;;;7.88;4.90;;;29.50;99.90;;;;;;6247216;23;20031;-75
2023/06/20 14:57:30;;;;;;;5.50;4.85;;;29.50;99.90;;;;;;6247188;23;20338;-74
2023/06/20 14:59:56;;;;;;;6.88;4.60;;;29.60;99.90;;;;;;6220302;23;20019;-74
2023/06/20 15:02:22;;;;;;;6.43;4.72;;;29.50;99.70;;;;;;6220154;23;20431;-74
2023/06/20 15:04:47;;;;;;;6.80;4.90;;;29.50;99.90;;;;;;6247104;23;20027;-75
2023/06/20 15:07:13;;;;;;;5.88;5.18;;;29.40;99.90;;;;;;6245591;23;20446;-76
2023/06/20 15:09:39;;;;;;;5.47;4.82;;;29.20;99.90;;;;;;6219917;23;20022;-75
2023/06/20 15:12:05;;;;;;;9.45;5.05;;;29.10;99.90;;;;;;6247022;23;20135;-76
2023/06/20 15:14:31;;;;;;;8.48;5.40;;;29.10;99.90;;;;;;6246996;23;20012;-75
2023/06/20 15:16:57;;;;;;;5.65;5.10;;;29.10;99.90;;;;;;6247351;23;20011;-75
2023/06/20 15:19:23;;;;;;;8.50;5.00;;;29.10;99.90;;;;;;6220202;23;20039;-75
2023/06/20 15:21:48;;;;;;;11.98;5.25;;;29.20;99.90;;;;;;6247008;23;20042;-75
2023/06/20 15:24:15;;;;;;;5.90;4.97;;;29.30;99.90;;;;;;6220059;23;20012;-75
2023/06/20 15:26:40;;;;;;;6.82;5.30;;;29.40;99.90;;;;;;6246981;23;20039;-75
2023/06/20 15:29:10;;;;;;;6.40;5.63;;;29.40;99.90;;;;;;6247180;23;20019;-75
2023/06/20 15:31:35;;;;;;;7.13;5.55;;;29.50;99.90;;;;;;6220029;23;20012;-74
2023/06/20 15:34:01;;;;;;;6.65;6.05;;;29.40;99.90;;;;;;6219682;23;20015;-76